sensor_id;sensor_type;location;lat;lon;timestamp;pressure;altitude;pressure_sealevel;temperature;humidity
13952;BME280;39535;52.192;9.886;2024-03-23T00:53:47;99658.00;;;8.34;100.00
13952;BME280;39535;52.192;9.886;2024-03-23T00:56:13;99662.63;;;8.60;100.00
13952;BME280;39535;52.192;9.886;2024-03-23T00:58:39;99653.66;;;8.73;100.00
13952;BME280;39535;52.192;9.886;2024-03-23T01:01:05;99642.09;;;8.85;100.00
13952;BME280;39535;52.192;9.886;2024-03-23T01:03:30;99642.59;;;9.00;100.00
13952;BME280;39535;52.192;9.886;2024-03-23T01:05:59;99644.09;;;9.10;100.00
13952;BME280;39535;52.192;9.886;2024-03-23T01:08:24;99649.97;;;9.17;100.00
13952;BME280;39535;52.192;9.886;2024-03-23T01:10:55;99645.47;;;9.23;100.00
13952;BME280;39535;52.192;9.886;2024-03-23T01:13:21;99645.34;;;9.28;100.00
13952;BME280;39535;52.192;9.886;2024-03-23T01:15:48;99658.31;;;9.29;100.00
13952;BME280;39535;52.192;9.886;2024-03-23T01:18:13;99661.69;;;9.33;100.00
13952;BME280;39535;52.192;9.886;2024-03-23T01:20:40;99663.38;;;9.36;100.00
13952;BME280;39535;52.192;9.886;2024-03-23T01:23:05;99670.22;;;9.40;100.00
13952;BME280;39535;52.192;9.886;2024-03-23T01:25:31;99678.88;;;9.40;100.00
13952;BME280;39535;52.192;9.886;2024-03-23T01:27:58;99685.97;;;9.33;100.00
13952;BME280;39535;52.192;9.886;2024-03-23T01:30:24;99677.28;;;9.34;100.00
13952;BME280;39535;52.192;9.886;2024-03-23T01:32:50;99671.91;;;9.41;99.99
13952;BME280;39535;52.192;9.886;2024-03-23T01:35:16;99682.38;;;9.39;99.74
13952;BME280;39535;52.192;9.886;2024-03-23T01:37:41;99669.50;;;9.33;100.00
13952;BME280;39535;52.192;9.886;2024-03-23T01:40:09;99676.31;;;9.39;100.00
13952;BME280;39535;52.192;9.886;2024-03-23T01:42:34;99680.69;;;9.38;99.50
13952;BME280;39535;52.192;9.886;2024-03-23T01:45:07;99687.69;;;9.36;99.38
13952;BME280;39535;52.192;9.886;2024-03-23T01:47:33;99692.84;;;9.38;98.95
13952;BME280;39535;52.192;9.886;2024-03-23T01:49:59;99693.75;;;9.35;98.67
13952;BME280;39535;52.192;9.886;2024-03-23T01:52:25;99691.16;;;9.35;98.57
13952;BME280;39535;52.192;9.886;2024-03-23T01:54:52;99690.31;;;9.34;98.67
13952;BME280;39535;52.192;9.886;2024-03-23T01:57:18;99684.22;;;9.36;98.83
13952;BME280;39535;52.192;9.886;2024-03-23T01:59:46;99682.44;;;9.38;98.32
13952;BME280;39535;52.192;9.886;2024-03-23T02:02:13;99684.97;;;9.39;98.13
13952;BME280;39535;52.192;9.886;2024-03-23T02:04:39;99688.50;;;9.38;98.27
13952;BME280;39535;52.192;9.886;2024-03-23T02:07:06;99683.25;;;9.40;98.06
13952;BME280;39535;52.192;9.886;2024-03-23T02:09:32;99682.38;;;9.39;97.98
13952;BME280;39535;52.192;9.886;2024-03-23T02:11:58;99673.56;;;9.43;97.46
13952;BME280;39535;52.192;9.886;2024-03-23T02:14:25;99691.81;;;9.43;97.23
13952;BME280;39535;52.192;9.886;2024-03-23T02:16:50;99677.28;;;9.34;97.48
13952;BME280;39535;52.192;9.886;2024-03-23T02:19:18;99674.69;;;9.34;97.88
13952;BME280;39535;52.192;9.886;2024-03-23T02:21:43;99663.38;;;9.36;98.13
13952;BME280;39535;52.192;9.886;2024-03-23T02:24:10;99667.69;;;9.37;98.06
13952;BME280;39535;52.192;9.886;2024-03-23T02:26:36;99670.31;;;9.35;97.90
13952;BME280;39535;52.192;9.886;2024-03-23T02:29:02;99654.72;;;9.33;97.95
13952;BME280;39535;52.192;9.886;2024-03-23T02:31:27;99651.22;;;9.36;98.13
13952;BME280;39535;52.192;9.886;2024-03-23T02:33:54;99645.97;;;9.38;97.80
13952;BME280;39535;52.192;9.886;2024-03-23T02:36:19;99652.03;;;9.38;97.49
13952;BME280;39535;52.192;9.886;2024-03-23T02:38:46;99641.63;;;9.37;97.47
13952;BME280;39535;52.192;9.886;2024-03-23T02:41:13;99644.28;;;9.35;97.22
13952;BME280;39535;52.192;9.886;2024-03-23T02:43:39;99639.38;;;9.24;97.76
13952;BME280;39535;52.192;9.886;2024-03-23T02:46:05;99629.75;;;9.26;98.28
13952;BME280;39535;52.192;9.886;2024-03-23T02:48:31;99619.38;;;9.25;98.78
13952;BME280;39535;52.192;9.886;2024-03-23T02:50:56;99608.34;;;9.15;99.38
13952;BME280;39535;52.192;9.886;2024-03-23T02:53:23;99590.97;;;9.15;99.33
13952;BME280;39535;52.192;9.886;2024-03-23T02:55:48;99589.13;;;9.21;99.39
13952;BME280;39535;52.192;9.886;2024-03-23T02:58:16;99591.72;;;9.21;99.10
13952;BME280;39535;52.192;9.886;2024-03-23T03:00:41;99589.19;;;9.18;99.07
13952;BME280;39535;52.192;9.886;2024-03-23T03:03:07;99574.66;;;9.10;100.00
13952;BME280;39535;52.192;9.886;2024-03-23T03:05:34;99564.09;;;9.15;100.00
13952;BME280;39535;52.192;9.886;2024-03-23T03:08:00;99557.22;;;9.12;100.00
13952;BME280;39535;52.192;9.886;2024-03-23T03:10:25;99557.38;;;9.08;100.00
13952;BME280;39535;52.192;9.886;2024-03-23T03:12:52;99545.97;;;9.12;100.00
13952;BME280;39535;52.192;9.886;2024-03-23T03:15:18;99551.28;;;9.07;100.00
13952;BME280;39535;52.192;9.886;2024-03-23T03:17:45;99541.50;;;9.15;100.00
13952;BME280;39535;52.192;9.886;2024-03-23T03:20:10;99551.88;;;9.17;99.61
13952;BME280;39535;52.192;9.886;2024-03-23T03:22:38;99556.19;;;9.20;99.16
13952;BME280;39535;52.192;9.886;2024-03-23T03:25:04;99566.00;;;9.10;99.14
13952;BME280;39535;52.192;9.886;2024-03-23T03:27:32;99550.25;;;9.13;99.63
13952;BME280;39535;52.192;9.886;2024-03-23T03:29:57;99543.31;;;9.13;99.81
13952;BME280;39535;52.192;9.886;2024-03-23T03:32:28;99556.22;;;9.18;99.30
13952;BME280;39535;52.192;9.886;2024-03-23T03:34:53;99571.03;;;9.16;99.37
13952;BME280;39535;52.192;9.886;2024-03-23T03:37:20;99589.25;;;8.82;97.70
13952;BME280;39535;52.192;9.886;2024-03-23T03:39:45;99569.25;;;8.84;99.54
13952;BME280;39535;52.192;9.886;2024-03-23T03:42:11;99564.31;;;8.37;100.00
13952;BME280;39535;52.192;9.886;2024-03-23T03:44:37;99542.25;;;8.55;100.00
13952;BME280;39535;52.192;9.886;2024-03-23T03:47:05;99538.31;;;8.37;100.00
13952;BME280;39535;52.192;9.886;2024-03-23T03:49:34;99515.22;;;8.25;100.00
13952;BME280;39535;52.192;9.886;2024-03-23T03:52:00;99492.81;;;8.21;100.00
13952;BME280;39535;52.192;9.886;2024-03-23T03:54:27;99472.34;;;8.43;100.00
13952;BME280;39535;52.192;9.886;2024-03-23T03:56:53;99480.28;;;8.37;100.00
13952;BME280;39535;52.192;9.886;2024-03-23T03:59:18;99484.63;;;8.00;100.00
13952;BME280;39535;52.192;9.886;2024-03-23T04:01:47;99450.34;;;7.84;100.00
13952;BME280;39535;52.192;9.886;2024-03-23T04:04:13;99417.22;;;7.56;100.00
13952;BME280;39535;52.192;9.886;2024-03-23T04:06:43;99375.16;;;7.42;100.00
13952;BME280;39535;52.192;9.886;2024-03-23T04:09:09;99333.31;;;7.17;100.00
13952;BME280;39535;52.192;9.886;2024-03-23T04:11:35;99310.69;;;6.86;100.00
13952;BME280;39535;52.192;9.886;2024-03-23T04:14:00;99298.09;;;6.68;100.00
13952;BME280;39535;52.192;9.886;2024-03-23T04:16:27;99295.50;;;6.68;100.00
13952;BME280;39535;52.192;9.886;2024-03-23T04:18:52;99290.38;;;6.66;100.00
13952;BME280;39535;52.192;9.886;2024-03-23T04:21:19;99271.25;;;6.70;100.00
13952;BME280;39535;52.192;9.886;2024-03-23T04:23:45;99263.78;;;6.56;100.00
13952;BME280;39535;52.192;9.886;2024-03-23T04:26:12;99260.50;;;6.48;100.00
13952;BME280;39535;52.192;9.886;2024-03-23T04:28:37;99264.16;;;6.38;100.00
13952;BME280;39535;52.192;9.886;2024-03-23T04:31:04;99254.41;;;6.90;100.00
13952;BME280;39535;52.192;9.886;2024-03-23T04:33:29;99273.75;;;6.75;100.00
13952;BME280;39535;52.192;9.886;2024-03-23T04:35:56;99289.84;;;6.89;100.00
13952;BME280;39535;52.192;9.886;2024-03-23T04:38:21;99317.06;;;6.70;100.00
13952;BME280;39535;52.192;9.886;2024-03-23T04:40:55;99337.63;;;6.79;100.00
13952;BME280;39535;52.192;9.886;2024-03-23T04:43:21;99341.84;;;6.83;100.00
13952;BME280;39535;52.192;9.886;2024-03-23T04:45:47;99343.59;;;6.83;100.00
13952;BME280;39535;52.192;9.886;2024-03-23T04:48:13;99343.19;;;7.01;100.00
13952;BME280;39535;52.192;9.886;2024-03-23T04:50:39;99343.97;;;7.06;100.00
13952;BME280;39535;52.192;9.886;2024-03-23T04:53:06;99350.69;;;7.13;100.00
13952;BME280;39535;52.192;9.886;2024-03-23T04:55:32;99364.22;;;6.89;100.00
13952;BME280;39535;52.192;9.886;2024-03-23T04:58:00;99356.84;;;6.70;100.00
13952;BME280;39535;52.192;9.886;2024-03-23T05:00:26;99342.50;;;6.52;100.00
13952;BME280;39535;52.192;9.886;2024-03-23T05:02:52;99332.13;;;6.52;100.00
13952;BME280;39535;52.192;9.886;2024-03-23T05:05:18;99320.25;;;6.42;100.00
13952;BME280;39535;52.192;9.886;2024-03-23T05:07:44;99300.22;;;6.49;100.00
13952;BME280;39535;52.192;9.886;2024-03-23T05:10:10;99287.72;;;6.68;100.00
13952;BME280;39535;52.192;9.886;2024-03-23T05:12:36;99279.56;;;6.85;100.00
13952;BME280;39535;52.192;9.886;2024-03-23T05:15:04;99289.31;;;6.73;100.00
13952;BME280;39535;52.192;9.886;2024-03-23T05:17:31;99292.34;;;6.53;100.00
13952;BME280;39535;52.192;9.886;2024-03-23T05:19:56;99286.25;;;6.56;100.00
13952;BME280;39535;52.192;9.886;2024-03-23T05:22:22;99272.94;;;6.32;100.00
13952;BME280;39535;52.192;9.886;2024-03-23T05:24:48;99264.22;;;6.36;100.00
13952;BME280;39535;52.192;9.886;2024-03-23T05:27:14;99247.72;;;6.39;100.00
13952;BME280;39535;52.192;9.886;2024-03-23T05:29:40;99236.41;;;6.43;100.00
13952;BME280;39535;52.192;9.886;2024-03-23T05:32:08;99236.25;;;6.51;100.00
13952;BME280;39535;52.192;9.886;2024-03-23T05:34:33;99232.53;;;6.63;100.00
13952;BME280;39535;52.192;9.886;2024-03-23T05:36:59;99237.72;;;6.63;100.00
13952;BME280;39535;52.192;9.886;2024-03-23T05:39:25;99245.63;;;6.56;100.00
13952;BME280;39535;52.192;9.886;2024-03-23T05:41:51;99234.69;;;6.81;100.00
13952;BME280;39535;52.192;9.886;2024-03-23T05:44:16;99249.91;;;6.96;100.00
13952;BME280;39535;52.192;9.886;2024-03-23T05:46:43;99261.13;;;6.97;100.00
13952;BME280;39535;52.192;9.886;2024-03-23T05:49:15;99278.94;;;6.73;100.00
13952;BME280;39535;52.192;9.886;2024-03-23T05:51:42;99302.19;;;6.36;100.00
13952;BME280;39535;52.192;9.886;2024-03-23T05:54:07;99330.44;;;6.50;100.00
13952;BME280;39535;52.192;9.886;2024-03-23T05:56:35;99401.22;;;6.55;100.00
13952;BME280;39535;52.192;9.886;2024-03-23T05:59:01;99437.50;;;6.56;100.00
13952;BME280;39535;52.192;9.886;2024-03-23T06:01:28;99424.88;;;6.82;100.00
13952;BME280;39535;52.192;9.886;2024-03-23T06:03:55;99440.56;;;6.75;100.00
13952;BME280;39535;52.192;9.886;2024-03-23T06:06:23;99491.84;;;6.61;98.50
13952;BME280;39535;52.192;9.886;2024-03-23T06:08:49;99553.03;;;6.70;96.75
13952;BME280;39535;52.192;9.886;2024-03-23T06:11:15;99572.09;;;6.69;95.82
13952;BME280;39535;52.192;9.886;2024-03-23T06:13:40;99577.03;;;6.83;97.36
13952;BME280;39535;52.192;9.886;2024-03-23T06:16:07;99571.03;;;6.81;97.13
13952;BME280;39535;52.192;9.886;2024-03-23T06:18:32;99562.28;;;6.86;98.03
13952;BME280;39535;52.192;9.886;2024-03-23T06:20:58;99556.91;;;6.47;99.68
13952;BME280;39535;52.192;9.886;2024-03-23T06:23:25;99529.75;;;6.15;100.00
13952;BME280;39535;52.192;9.886;2024-03-23T06:25:51;99480.56;;;6.14;100.00
13952;BME280;39535;52.192;9.886;2024-03-23T06:28:17;99448.56;;;6.16;100.00
13952;BME280;39535;52.192;9.886;2024-03-23T06:30:43;99417.16;;;6.33;100.00
13952;BME280;39535;52.192;9.886;2024-03-23T06:33:09;99403.75;;;6.58;100.00
13952;BME280;39535;52.192;9.886;2024-03-23T06:35:35;99401.91;;;6.65;100.00
13952;BME280;39535;52.192;9.886;2024-03-23T06:38:01;99405.13;;;6.76;100.00
13952;BME280;39535;52.192;9.886;2024-03-23T06:40:28;99405.91;;;6.80;100.00
13952;BME280;39535;52.192;9.886;2024-03-23T06:42:54;99413.66;;;6.81;100.00
13952;BME280;39535;52.192;9.886;2024-03-23T06:45:20;99452.34;;;6.47;100.00
13952;BME280;39535;52.192;9.886;2024-03-23T06:47:48;99454.72;;;6.59;100.00
13952;BME280;39535;52.192;9.886;2024-03-23T06:50:14;99466.72;;;6.15;100.00
13952;BME280;39535;52.192;9.886;2024-03-23T06:52:40;99464.91;;;6.20;100.00
13952;BME280;39535;52.192;9.886;2024-03-23T06:55:07;99464.47;;;6.46;100.00
13952;BME280;39535;52.192;9.886;2024-03-23T06:57:34;99430.13;;;6.80;100.00
13952;BME280;39535;52.192;9.886;2024-03-23T07:00:00;99428.09;;;6.94;100.00
13952;BME280;39535;52.192;9.886;2024-03-23T07:02:25;99423.34;;;7.15;100.00
13952;BME280;39535;52.192;9.886;2024-03-23T07:04:52;99445.03;;;7.11;100.00
13952;BME280;39535;52.192;9.886;2024-03-23T07:07:17;99488.56;;;6.98;99.54
13952;BME280;39535;52.192;9.886;2024-03-23T07:09:43;99496.75;;;7.22;99.14
13952;BME280;39535;52.192;9.886;2024-03-23T07:12:09;99518.34;;;7.22;98.37
13952;BME280;39535;52.192;9.886;2024-03-23T07:14:36;99538.50;;;7.09;97.64
13952;BME280;39535;52.192;9.886;2024-03-23T07:17:02;99546.53;;;6.95;97.98
13952;BME280;39535;52.192;9.886;2024-03-23T07:19:28;99526.00;;;6.85;99.14
13952;BME280;39535;52.192;9.886;2024-03-23T07:21:53;99494.31;;;7.12;100.00
13952;BME280;39535;52.192;9.886;2024-03-23T07:24:20;99513.19;;;6.75;99.53
13952;BME280;39535;52.192;9.886;2024-03-23T07:26:45;99489.50;;;6.94;100.00
13952;BME280;39535;52.192;9.886;2024-03-23T07:29:12;99465.53;;;7.23;100.00
13952;BME280;39535;52.192;9.886;2024-03-23T07:31:39;99455.63;;;7.42;100.00
13952;BME280;39535;52.192;9.886;2024-03-23T07:34:06;99459.09;;;7.41;100.00
13952;BME280;39535;52.192;9.886;2024-03-23T07:36:32;99475.34;;;7.10;100.00
13952;BME280;39535;52.192;9.886;2024-03-23T07:38:58;99473.78;;;7.44;100.00
13952;BME280;39535;52.192;9.886;2024-03-23T07:41:23;99477.59;;;7.66;100.00
13952;BME280;39535;52.192;9.886;2024-03-23T07:43:50;99482.47;;;7.82;100.00
13952;BME280;39535;52.192;9.886;2024-03-23T07:46:16;99482.97;;;7.96;100.00
13952;BME280;39535;52.192;9.886;2024-03-23T07:48:45;99526.53;;;7.85;96.93
13952;BME280;39535;52.192;9.886;2024-03-23T07:51:16;99557.53;;;7.92;96.63
13952;BME280;39535;52.192;9.886;2024-03-23T07:53:44;99579.31;;;7.46;95.52
13952;BME280;39535;52.192;9.886;2024-03-23T07:56:10;99565.50;;;7.44;97.74
13952;BME280;39535;52.192;9.886;2024-03-23T07:58:37;99535.66;;;7.64;98.65
13952;BME280;39535;52.192;9.886;2024-03-23T08:01:03;99530.31;;;7.71;97.66
13952;BME280;39535;52.192;9.886;2024-03-23T08:03:30;99555.44;;;7.27;97.58
13952;BME280;39535;52.192;9.886;2024-03-23T08:05:57;99536.16;;;7.41;99.45
13952;BME280;39535;52.192;9.886;2024-03-23T08:08:23;99520.44;;;7.47;99.69
13952;BME280;39535;52.192;9.886;2024-03-23T08:10:49;99505.44;;;7.61;99.74
13952;BME280;39535;52.192;9.886;2024-03-23T08:13:15;99493.06;;;6.90;100.00
13952;BME280;39535;52.192;9.886;2024-03-23T08:15:41;99433.44;;;6.87;100.00
13952;BME280;39535;52.192;9.886;2024-03-23T08:18:07;99441.38;;;6.78;100.00
13952;BME280;39535;52.192;9.886;2024-03-23T08:20:33;99416.22;;;6.84;100.00
13952;BME280;39535;52.192;9.886;2024-03-23T08:23:01;99387.22;;;7.06;100.00
13952;BME280;39535;52.192;9.886;2024-03-23T08:25:26;99360.59;;;7.35;100.00
13952;BME280;39535;52.192;9.886;2024-03-23T08:27:52;99353.28;;;7.52;100.00
13952;BME280;39535;52.192;9.886;2024-03-23T08:30:18;99357.16;;;7.70;100.00
13952;BME280;39535;52.192;9.886;2024-03-23T08:32:44;99362.81;;;7.52;100.00
13952;BME280;39535;52.192;9.886;2024-03-23T08:35:11;99353.53;;;7.78;100.00
13952;BME280;39535;52.192;9.886;2024-03-23T08:37:37;99366.97;;;7.59;100.00
13952;BME280;39535;52.192;9.886;2024-03-23T08:40:05;99375.66;;;7.58;100.00
13952;BME280;39535;52.192;9.886;2024-03-23T08:42:33;99368.94;;;7.49;100.00
13952;BME280;39535;52.192;9.886;2024-03-23T08:44:58;99351.34;;;7.23;100.00
13952;BME280;39535;52.192;9.886;2024-03-23T08:47:25;99351.50;;;7.17;100.00
13952;BME280;39535;52.192;9.886;2024-03-23T08:49:50;99327.25;;;7.18;100.00
13952;BME280;39535;52.192;9.886;2024-03-23T08:52:17;99368.28;;;7.02;100.00
13952;BME280;39535;52.192;9.886;2024-03-23T08:54:42;99431.75;;;6.86;100.00
13952;BME280;39535;52.192;9.886;2024-03-23T08:57:10;99454.44;;;7.16;100.00
13952;BME280;39535;52.192;9.886;2024-03-23T08:59:37;99470.56;;;7.32;99.90
13952;BME280;39535;52.192;9.886;2024-03-23T09:02:03;99514.00;;;7.23;96.53
13952;BME280;39535;52.192;9.886;2024-03-23T09:04:29;99574.22;;;7.42;94.54
13952;BME280;39535;52.192;9.886;2024-03-23T09:06:56;99623.97;;;7.19;91.58
13952;BME280;39535;52.192;9.886;2024-03-23T09:09:22;99651.41;;;7.33;93.40
13952;BME280;39535;52.192;9.886;2024-03-23T09:11:49;99660.84;;;7.38;92.20
13952;BME280;39535;52.192;9.886;2024-03-23T09:14:15;99668.69;;;7.34;92.00
13952;BME280;39535;52.192;9.886;2024-03-23T09:16:42;99657.41;;;7.35;94.12
13952;BME280;39535;52.192;9.886;2024-03-23T09:19:07;99645.97;;;7.46;94.84
13952;BME280;39535;52.192;9.886;2024-03-23T09:21:35;99640.03;;;7.39;94.76
13952;BME280;39535;52.192;9.886;2024-03-23T09:24:01;99650.50;;;7.34;94.19
13952;BME280;39535;52.192;9.886;2024-03-23T09:26:27;99639.72;;;7.54;95.17
13952;BME280;39535;52.192;9.886;2024-03-23T09:28:54;99639.03;;;7.46;94.23
13952;BME280;39535;52.192;9.886;2024-03-23T09:31:22;99683.31;;;7.39;91.99
13952;BME280;39535;52.192;9.886;2024-03-23T09:33:47;99708.56;;;7.30;91.26
13952;BME280;39535;52.192;9.886;2024-03-23T09:36:14;99699.56;;;7.48;91.84
13952;BME280;39535;52.192;9.886;2024-03-23T09:38:40;99706.75;;;7.81;90.36
13952;BME280;39535;52.192;9.886;2024-03-23T09:41:07;99722.84;;;8.00;90.85
13952;BME280;39535;52.192;9.886;2024-03-23T09:43:33;99731.47;;;8.02;90.88
13952;BME280;39535;52.192;9.886;2024-03-23T09:46:01;99757.09;;;8.20;87.96
13952;BME280;39535;52.192;9.886;2024-03-23T09:48:28;99838.19;;;7.92;84.49
13952;BME280;39535;52.192;9.886;2024-03-23T09:50:55;99893.94;;;7.73;83.23
13952;BME280;39535;52.192;9.886;2024-03-23T09:53:21;99877.38;;;7.82;85.79
13952;BME280;39535;52.192;9.886;2024-03-23T09:55:48;99866.19;;;7.76;85.97
13952;BME280;39535;52.192;9.886;2024-03-23T09:58:15;99872.16;;;7.83;85.61
13952;BME280;39535;52.192;9.886;2024-03-23T10:00:41;99929.28;;;7.26;82.53
13952;BME280;39535;52.192;9.886;2024-03-23T10:03:06;99932.75;;;7.26;83.64
13952;BME280;39535;52.192;9.886;2024-03-23T10:05:35;99904.91;;;7.38;85.69
13952;BME280;39535;52.192;9.886;2024-03-23T10:08:17;99833.75;;;7.49;88.39
13952;BME280;39535;52.192;9.886;2024-03-23T10:10:45;99834.69;;;7.45;86.12
13952;BME280;39535;52.192;9.886;2024-03-23T10:13:11;99824.56;;;7.80;86.89
13952;BME280;39535;52.192;9.886;2024-03-23T10:15:38;99830.91;;;8.13;85.10
13952;BME280;39535;52.192;9.886;2024-03-23T10:18:17;99889.75;;;8.17;82.00
13952;BME280;39535;52.192;9.886;2024-03-23T10:20:50;99912.53;;;8.52;82.36
13952;BME280;39535;52.192;9.886;2024-03-23T10:23:16;99950.25;;;8.25;81.56
13952;BME280;39535;52.192;9.886;2024-03-23T10:25:42;99920.56;;;8.39;83.32
13952;BME280;39535;52.192;9.886;2024-03-23T10:28:08;99904.06;;;8.41;83.52
13952;BME280;39535;52.192;9.886;2024-03-23T10:30:36;99933.63;;;8.34;80.01
13952;BME280;39535;52.192;9.886;2024-03-23T10:33:09;99989.63;;;8.57;79.48
13952;BME280;39535;52.192;9.886;2024-03-23T10:35:36;100013.06;;;8.55;77.42
13952;BME280;39535;52.192;9.886;2024-03-23T10:38:04;100073.78;;;8.54;77.08
13952;BME280;39535;52.192;9.886;2024-03-23T10:40:34;100081.22;;;8.74;76.93
13952;BME280;39535;52.192;9.886;2024-03-23T10:43:00;100084.28;;;8.98;77.15
13952;BME280;39535;52.192;9.886;2024-03-23T10:45:26;100060.47;;;9.18;78.70
13952;BME280;39535;52.192;9.886;2024-03-23T10:47:52;100051.41;;;9.39;77.45
13952;BME280;39535;52.192;9.886;2024-03-23T10:50:19;100078.22;;;9.44;75.13
13952;BME280;39535;52.192;9.886;2024-03-23T10:52:46;100086.59;;;9.60;76.82
13952;BME280;39535;52.192;9.886;2024-03-23T10:55:17;100142.84;;;9.23;74.38
13952;BME280;39535;52.192;9.886;2024-03-23T10:57:45;100240.03;;;8.03;69.87
13952;BME280;39535;52.192;9.886;2024-03-23T11:00:15;100285.53;;;7.57;70.07
13952;BME280;39535;52.192;9.886;2024-03-23T11:02:41;100239.28;;;7.93;73.18
13952;BME280;39535;52.192;9.886;2024-03-23T11:05:28;100292.97;;;7.95;69.83
13952;BME280;39535;52.192;9.886;2024-03-23T11:07:54;100362.16;;;8.04;65.79
13952;BME280;39535;52.192;9.886;2024-03-23T11:10:29;100403.75;;;8.04;66.63
13952;BME280;39535;52.192;9.886;2024-03-23T11:12:55;100400.97;;;8.24;68.89
13952;BME280;39535;52.192;9.886;2024-03-23T11:15:21;100352.03;;;8.60;70.73
13952;BME280;39535;52.192;9.886;2024-03-23T11:18:05;100341.31;;;8.86;69.82
13952;BME280;39535;52.192;9.886;2024-03-23T11:20:33;100327.19;;;9.04;71.07
13952;BME280;39535;52.192;9.886;2024-03-23T11:22:59;100308.59;;;9.27;69.57
13952;BME280;39535;52.192;9.886;2024-03-23T11:25:28;100314.56;;;9.36;69.69
13952;BME280;39535;52.192;9.886;2024-03-23T11:27:55;100285.97;;;9.81;69.75
13952;BME280;39535;52.192;9.886;2024-03-23T11:30:24;100294.75;;;9.77;70.31
13952;BME280;39535;52.192;9.886;2024-03-23T11:32:51;100319.59;;;9.46;70.13
13952;BME280;39535;52.192;9.886;2024-03-23T11:35:26;100389.09;;;8.82;62.47
13952;BME280;39535;52.192;9.886;2024-03-23T11:38:02;100476.78;;;8.77;61.45
13952;BME280;39535;52.192;9.886;2024-03-23T11:40:30;100475.91;;;9.48;67.17
13952;BME280;39535;52.192;9.886;2024-03-23T11:42:56;100417.88;;;9.37;69.85
13952;BME280;39535;52.192;9.886;2024-03-23T11:45:23;100372.66;;;9.41;69.89
13952;BME280;39535;52.192;9.886;2024-03-23T11:47:48;100321.47;;;9.37;71.66
13952;BME280;39535;52.192;9.886;2024-03-23T11:50:19;100293.91;;;9.76;70.84
13952;BME280;39535;52.192;9.886;2024-03-23T11:52:45;100308.31;;;9.46;69.98
13952;BME280;39535;52.192;9.886;2024-03-23T11:55:11;100294.28;;;9.53;71.12
13952;BME280;39535;52.192;9.886;2024-03-23T11:57:38;100260.66;;;9.39;72.05
13952;BME280;39535;52.192;9.886;2024-03-23T12:00:20;100240.81;;;9.80;72.25
13952;BME280;39535;52.192;9.886;2024-03-23T12:02:46;100292.84;;;9.86;66.90
13952;BME280;39535;52.192;9.886;2024-03-23T12:05:15;100298.84;;;10.79;65.69
13952;BME280;39535;52.192;9.886;2024-03-23T12:07:41;100379.41;;;10.96;62.20
13952;BME280;39535;52.192;9.886;2024-03-23T12:10:08;100423.59;;;11.06;62.49
13952;BME280;39535;52.192;9.886;2024-03-23T12:12:33;100439.84;;;11.21;64.32
13952;BME280;39535;52.192;9.886;2024-03-23T12:15:06;100466.13;;;10.68;66.12
13952;BME280;39535;52.192;9.886;2024-03-23T12:17:33;100445.56;;;10.00;71.13
13952;BME280;39535;52.192;9.886;2024-03-23T12:20:00;100351.84;;;8.75;76.47
13952;BME280;39535;52.192;9.886;2024-03-23T12:22:25;100188.06;;;8.00;79.67
13952;BME280;39535;52.192;9.886;2024-03-23T12:24:52;100067.38;;;7.55;82.15
13952;BME280;39535;52.192;9.886;2024-03-23T12:27:18;99961.38;;;7.19;84.72
13952;BME280;39535;52.192;9.886;2024-03-23T12:29:44;99856.00;;;7.63;86.88
13952;BME280;39535;52.192;9.886;2024-03-23T12:32:13;99797.25;;;8.05;87.57
13952;BME280;39535;52.192;9.886;2024-03-23T12:34:42;99754.81;;;8.48;87.19
13952;BME280;39535;52.192;9.886;2024-03-23T12:37:08;99754.09;;;9.18;86.18
13952;BME280;39535;52.192;9.886;2024-03-23T12:39:34;99801.91;;;8.77;83.65
13952;BME280;39535;52.192;9.886;2024-03-23T12:42:02;99827.97;;;8.73;84.59
13952;BME280;39535;52.192;9.886;2024-03-23T12:44:30;99822.91;;;8.67;84.02
13952;BME280;39535;52.192;9.886;2024-03-23T12:46:55;99820.94;;;8.79;84.26
13952;BME280;39535;52.192;9.886;2024-03-23T12:49:23;99816.97;;;8.17;86.29
13952;BME280;39535;52.192;9.886;2024-03-23T12:51:53;99801.19;;;7.80;87.45
13952;BME280;39535;52.192;9.886;2024-03-23T12:54:20;99748.13;;;7.43;89.82
13952;BME280;39535;52.192;9.886;2024-03-23T12:56:46;99731.56;;;7.50;89.60
13952;BME280;39535;52.192;9.886;2024-03-23T12:59:14;99754.56;;;6.65;92.02
13952;BME280;39535;52.192;9.886;2024-03-23T13:01:39;99654.50;;;5.85;97.90
13952;BME280;39535;52.192;9.886;2024-03-23T13:04:06;99554.34;;;5.85;100.00
13952;BME280;39535;52.192;9.886;2024-03-23T13:06:33;99508.50;;;5.28;100.00
13952;BME280;39535;52.192;9.886;2024-03-23T13:09:05;99460.00;;;5.44;99.80
13952;BME280;39535;52.192;9.886;2024-03-23T13:11:42;99499.84;;;5.31;97.29
13952;BME280;39535;52.192;9.886;2024-03-23T13:14:16;99484.22;;;5.37;97.80
13952;BME280;39535;52.192;9.886;2024-03-23T13:16:42;99457.13;;;5.64;99.80
13952;BME280;39535;52.192;9.886;2024-03-23T13:19:14;99446.03;;;6.12;100.00
13952;BME280;39535;52.192;9.886;2024-03-23T13:21:44;99465.94;;;6.60;98.71
13952;BME280;39535;52.192;9.886;2024-03-23T13:24:10;99515.28;;;6.56;94.24
13952;BME280;39535;52.192;9.886;2024-03-23T13:26:37;99563.69;;;6.54;92.95
13952;BME280;39535;52.192;9.886;2024-03-23T13:29:05;99573.47;;;6.90;93.26
13952;BME280;39535;52.192;9.886;2024-03-23T13:31:31;99596.94;;;7.30;90.19
13952;BME280;39535;52.192;9.886;2024-03-23T13:33:59;99629.63;;;7.41;89.22
13952;BME280;39535;52.192;9.886;2024-03-23T13:36:24;99678.72;;;7.03;86.78
13952;BME280;39535;52.192;9.886;2024-03-23T13:38:52;99710.75;;;7.04;87.25
13952;BME280;39535;52.192;9.886;2024-03-23T13:41:17;99704.97;;;6.85;88.02
13952;BME280;39535;52.192;9.886;2024-03-23T13:43:44;99683.41;;;6.81;90.56
13952;BME280;39535;52.192;9.886;2024-03-23T13:46:10;99639.63;;;7.14;91.52
13952;BME280;39535;52.192;9.886;2024-03-23T13:48:35;99632.31;;;8.59;88.74
13952;BME280;39535;52.192;9.886;2024-03-23T13:51:03;99752.13;;;9.28;83.25
13952;BME280;39535;52.192;9.886;2024-03-23T13:53:29;99865.69;;;9.33;78.87
13952;BME280;39535;52.192;9.886;2024-03-23T13:55:57;99935.16;;;9.33;78.02